Time;durP1;ratioP1;P1;durP2;ratioP2;P2;SDS_P1;SDS_P2;PMS_P1;PMS_P2;Temp;Humidity;BMP_temperature;BMP_pressure;BME280_temperature;BME280_humidity;BME280_pressure;Samples;Min_cycle;Max_cycle;Signal;HPM_P1;HPM_P2
2021/06/15 00:01:04;;;;;;;4.43;2.70;;;;;;;12.65;64.16;97067.83;127716;1093;113500;-92
2021/06/15 00:03:36;;;;;;;4.13;2.40;;;;;;;12.69;64.08;97073.41;127827;1093;29640;-94
2021/06/15 00:06:07;;;;;;;5.00;2.70;;;;;;;12.67;64.01;97070.23;127745;1093;113510;-94
2021/06/15 00:08:39;;;;;;;4.10;2.18;;;;;;;12.64;64.05;97062.79;127875;1092;26015;-93
2021/06/15 00:11:10;;;;;;;4.58;2.55;;;;;;;12.65;63.91;97061.71;127787;1092;113707;-94
2021/06/15 00:13:42;;;;;;;4.40;2.53;;;;;;;12.64;63.89;97057.47;127901;1093;30048;-94
2021/06/15 00:16:14;;;;;;;5.25;2.25;;;;;;;12.63;64.14;97058.55;127911;1093;25845;-94
2021/06/15 00:18:45;;;;;;;5.18;3.38;;;;;;;12.70;64.20;97061.69;127777;1093;113670;-94
2021/06/15 00:21:16;;;;;;;5.38;2.80;;;;;;;12.70;64.24;97054.50;127836;1093;27959;-94
2021/06/15 00:23:48;;;;;;;4.93;3.00;;;;;;;12.72;64.14;97051.55;127779;1093;114381;-94
2021/06/15 00:26:19;;;;;;;5.83;2.77;;;;;;;12.75;64.12;97053.64;127792;1093;26752;-95
2021/06/15 00:28:51;;;;;;;4.53;2.83;;;;;;;12.77;64.05;97062.14;127774;1093;113715;-95
2021/06/15 00:31:24;;;;;;;6.60;2.83;;;;;;;12.76;64.10;97057.89;127831;1093;30864;-93
2021/06/15 00:33:56;;;;;;;4.13;3.05;;;;;;;12.76;64.05;97052.57;127772;1093;30613;-93
2021/06/15 00:36:27;;;;;;;4.08;2.48;;;;;;;12.76;64.02;97053.36;127695;1093;113505;-94
2021/06/15 00:39:00;;;;;;;5.43;2.70;;;;;;;12.76;63.95;97058.69;127839;1093;27772;-93
2021/06/15 00:41:32;;;;;;;3.87;2.60;;;;;;;12.71;63.93;97049.97;127732;1092;114665;-94
2021/06/15 00:44:03;;;;;;;5.95;3.15;;;;;;;12.66;64.07;97047.34;127851;1093;25257;-95
2021/06/15 00:46:35;;;;;;;4.88;2.73;;;;;;;12.62;64.05;97047.11;127830;1093;31908;-95
2021/06/15 00:49:07;;;;;;;3.65;2.50;;;;;;;12.60;64.19;97051.92;127746;1093;113336;-92
2021/06/15 00:51:38;;;;;;;7.00;2.90;;;;;;;12.58;64.10;97045.30;127832;1093;28999;-92
2021/06/15 00:54:10;;;;;;;5.45;2.95;;;;;;;12.59;64.05;97046.89;127797;1093;113979;-94
2021/06/15 00:56:42;;;;;;;3.65;2.53;;;;;;;12.61;64.25;97050.05;127903;1093;27741;-94
2021/06/15 00:59:13;;;;;;;4.40;2.80;;;;;;;12.59;64.15;97046.89;127825;1093;114401;-95
2021/06/15 01:01:45;;;;;;;5.20;2.88;;;;;;;12.59;64.23;97053.00;127933;1093;27478;-96
2021/06/15 01:04:18;;;;;;;3.90;2.57;;;;;;;12.55;64.19;97051.19;127856;1093;36713;-94
2021/06/15 01:07:05;;;;;;;5.83;2.88;;;;;;;12.51;64.29;97042.16;127729;1093;113492;-93
2021/06/15 01:09:42;;;;;;;5.15;2.75;;;;;;;12.47;64.17;97044.59;127819;1092;26781;-94
2021/06/15 01:12:30;;;;;;;4.70;2.78;;;;;;;12.46;64.52;97048.33;127832;1093;114003;-94
2021/06/15 01:15:10;;;;;;;4.23;2.63;;;;;;;12.44;64.55;97048.61;127871;1093;28494;-94
2021/06/15 01:17:47;;;;;;;5.63;3.10;;;;;;;12.45;64.43;97042.21;127898;1093;113489;-94
2021/06/15 01:20:24;;;;;;;4.80;3.00;;;;;;;12.43;64.50;97040.91;127851;1093;27386;-92
2021/06/15 01:23:16;;;;;;;5.05;3.10;;;;;;;12.39;64.53;97040.69;127709;1093;114630;-93
2021/06/15 01:26:17;;;;;;;5.43;3.23;;;;;;;12.36;64.79;97043.08;127834;1093;24581;-93
2021/06/15 01:28:53;;;;;;;5.03;2.70;;;;;;;12.33;64.78;97044.44;127735;1093;113849;-93
2021/06/15 01:31:34;;;;;;;4.10;2.73;;;;;;;12.30;64.96;97033.58;127838;1093;28621;-94
2021/06/15 01:34:09;;;;;;;4.65;3.15;;;;;;;12.30;65.14;97038.89;127817;1093;29524;-93
2021/06/15 01:36:44;;;;;;;4.08;2.65;;;;;;;12.31;65.09;97035.95;127743;1093;113578;-94
2021/06/15 01:39:22;;;;;;;5.95;2.90;;;;;;;12.34;65.09;97029.28;127822;1093;25746;-94
2021/06/15 01:41:58;;;;;;;6.43;2.83;;;;;;;12.33;65.12;97028.48;127676;1093;114484;-93
2021/06/15 01:44:32;;;;;;;5.35;3.08;;;;;;;12.29;65.15;97022.14;127840;1093;27033;-94
2021/06/15 01:47:09;;;;;;;4.83;2.78;;;;;;;12.26;65.13;97028.03;127745;1093;113585;-92
2021/06/15 01:49:45;;;;;;;3.55;2.28;;;;;;;12.25;65.13;97025.65;127922;1092;29396;-94
2021/06/15 01:52:18;;;;;;;6.00;2.60;;;;;;;12.21;65.08;97021.94;127802;1093;28228;-92
2021/06/15 01:54:49;;;;;;;4.60;2.70;;;;;;;12.19;65.29;97022.22;127731;1093;113502;-93
2021/06/15 01:57:24;;;;;;;6.15;2.98;;;;;;;12.24;65.34;97024.03;127861;1092;27308;-94
2021/06/15 02:00:00;;;;;;;6.03;2.50;;;;;;;12.26;65.54;97017.39;127787;1093;114506;-94
2021/06/15 02:02:34;;;;;;;6.10;2.80;;;;;;;12.25;65.32;97009.70;127877;1093;26178;-93
2021/06/15 02:05:08;;;;;;;4.03;2.83;;;;;;;12.25;65.37;97015.81;127761;1093;113871;-94
2021/06/15 02:07:47;;;;;;;5.58;2.50;;;;;;;12.22;65.31;97016.34;127818;1092;33170;-94
2021/06/15 02:10:20;;;;;;;2.58;1.85;;;;;;;12.11;65.36;97014.86;127833;1092;30765;-93
2021/06/15 02:12:55;;;;;;;2.88;2.28;;;;;;;12.10;65.57;97013.25;127745;1093;113519;-94
2021/06/15 02:15:30;;;;;;;3.65;2.35;;;;;;;12.07;65.56;97011.15;127848;1092;27280;-94
2021/06/15 02:18:03;;;;;;;4.20;2.53;;;;;;;12.04;65.78;97004.53;127805;1093;113509;-93
2021/06/15 02:20:41;;;;;;;5.75;3.00;;;;;;;12.07;65.84;97003.17;127816;1092;30605;-93
2021/06/15 02:23:18;;;;;;;4.00;2.60;;;;;;;12.04;65.79;97004.53;127818;1093;114437;-93
2021/06/15 02:25:54;;;;;;;4.20;2.50;;;;;;;11.90;65.56;97003.56;127824;1093;29396;-94
2021/06/15 02:28:26;;;;;;;5.05;2.85;;;;;;;11.71;65.96;97011.38;127797;1093;37002;-93
2021/06/15 02:31:00;;;;;;;3.27;2.33;;;;;;;11.67;66.15;97010.31;127785;1092;113580;-94
2021/06/15 02:33:37;;;;;;;5.23;2.40;;;;;;;11.72;66.54;97004.99;127878;1093;25383;-94
2021/06/15 02:36:16;;;;;;;4.68;2.28;;;;;;;11.73;66.54;96998.61;127776;1093;112681;-93
2021/06/15 02:38:54;;;;;;;3.93;2.33;;;;;;;11.78;66.59;96995.91;127871;1093;30170;-93
2021/06/15 02:41:31;;;;;;;3.93;2.38;;;;;;;11.78;66.62;97000.43;127740;1092;113718;-93
2021/06/15 02:44:05;;;;;;;4.05;2.40;;;;;;;11.77;66.69;97010.27;127832;1093;29483;-95
2021/06/15 02:46:41;;;;;;;3.85;2.38;;;;;;;11.73;66.63;97008.44;127864;1093;30965;-94
2021/06/15 02:49:16;;;;;;;3.83;2.33;;;;;;;11.58;66.71;97002.16;127803;1093;114009;-94
2021/06/15 02:51:56;;;;;;;6.93;2.70;;;;;;;11.51;66.89;97000.86;127850;1092;27894;-95
2021/06/15 02:54:32;;;;;;;3.20;2.23;;;;;;;11.49;67.18;97002.99;127737;1093;114349;-96
2021/06/15 02:57:05;;;;;;;3.27;2.43;;;;;;;11.45;67.35;97005.41;127805;1093;26873;-94
2021/06/15 02:59:38;;;;;;;4.53;2.18;;;;;;;11.50;67.39;97000.06;127628;1093;113726;-93
2021/06/15 03:02:09;;;;;;;3.45;2.65;;;;;;;11.45;67.54;96997.45;127967;1092;26246;-92
2021/06/15 03:04:45;;;;;;;3.58;2.13;;;;;;;11.48;67.77;97001.41;127880;1093;30703;-93
2021/06/15 03:07:17;;;;;;;4.55;2.68;;;;;;;11.44;67.72;97000.38;127732;1093;113364;-94
2021/06/15 03:09:49;;;;;;;4.05;2.70;;;;;;;11.44;67.91;97003.03;127801;1093;33294;-94
2021/06/15 03:12:24;;;;;;;4.75;3.00;;;;;;;11.47;67.82;97003.27;127747;1093;112792;-93
2021/06/15 03:15:01;;;;;;;4.18;2.70;;;;;;;11.44;67.86;97006.48;127833;1093;27163;-93
2021/06/15 03:17:36;;;;;;;3.20;2.33;;;;;;;11.44;68.16;97006.48;127728;1093;114700;-93
2021/06/15 03:20:10;;;;;;;3.98;2.40;;;;;;;11.49;68.21;97003.78;127875;1093;27775;-93
2021/06/15 03:22:51;;;;;;;4.95;2.00;;;;;;;11.50;68.31;97005.38;127891;1093;28761;-93
2021/06/15 03:25:26;;;;;;;4.05;2.45;;;;;;;11.53;68.20;97004.02;127740;1093;113356;-93
2021/06/15 03:28:00;;;;;;;5.28;2.60;;;;;;;11.54;68.39;97001.13;127794;1093;30509;-96
2021/06/15 03:30:35;;;;;;;4.48;3.18;;;;;;;11.62;68.37;97010.36;127736;1093;114095;-93
2021/06/15 03:33:09;;;;;;;4.60;2.53;;;;;;;11.68;68.58;97003.14;127844;1093;29259;-93
2021/06/15 03:35:46;;;;;;;5.93;2.55;;;;;;;11.70;68.56;97009.00;127810;1093;113843;-93
2021/06/15 03:38:19;;;;;;;5.10;2.28;;;;;;;11.73;68.60;97006.58;127794;1093;28101;-93
2021/06/15 03:40:53;;;;;;;4.07;2.30;;;;;;;11.76;68.72;97006.02;127870;1093;27015;-94
2021/06/15 03:43:28;;;;;;;4.00;2.77;;;;;;;11.80;68.98;97001.77;127713;1092;113385;-92
2021/06/15 03:46:03;;;;;;;5.00;2.25;;;;;;;11.86;68.24;97007.86;127884;1093;30396;-93
2021/06/15 03:48:37;;;;;;;5.75;2.73;;;;;;;11.93;68.80;97012.84;127732;1093;113566;-93
2021/06/15 03:51:10;;;;;;;5.05;2.38;;;;;;;11.99;68.96;97001.92;127857;1093;28120;-93
2021/06/15 03:53:43;;;;;;;3.90;2.55;;;;;;;12.08;68.92;97002.10;127819;1092;113684;-91
2021/06/15 03:56:16;;;;;;;5.20;2.55;;;;;;;12.14;69.18;97004.46;127906;1093;24357;-91
2021/06/15 03:58:50;;;;;;;5.28;2.23;;;;;;;12.20;68.87;97002.54;127839;1093;26884;-92
2021/06/15 04:01:23;;;;;;;4.23;2.45;;;;;;;12.18;68.66;96997.50;127753;1093;113290;-91
2021/06/15 04:03:58;;;;;;;5.83;2.50;;;;;;;12.21;68.78;96998.81;127874;1092;25826;-91
2021/06/15 04:06:30;;;;;;;5.50;2.60;;;;;;;12.30;68.95;97001.67;127732;1093;114507;-92
2021/06/15 04:09:04;;;;;;;2.98;2.00;;;;;;;12.37;68.80;96999.47;127878;1093;24905;-91
2021/06/15 04:11:40;;;;;;;3.60;2.58;;;;;;;12.43;68.66;97001.82;127732;1093;114042;-91
2021/06/15 04:14:15;;;;;;;3.93;2.30;;;;;;;12.49;69.09;97000.69;127913;1093;27784;-90
2021/06/15 04:16:47;;;;;;;4.43;2.48;;;;;;;12.60;68.99;97001.39;127863;1092;28192;-92
2021/06/15 04:19:24;;;;;;;4.15;2.50;;;;;;;12.70;68.96;96997.84;127753;1092;113281;-92
2021/06/15 04:21:59;;;;;;;3.58;2.25;;;;;;;12.82;68.48;97003.57;127885;1093;26502;-92
2021/06/15 04:24:32;;;;;;;4.63;2.43;;;;;;;12.90;68.55;97005.59;127753;1093;113704;-92
2021/06/15 04:27:06;;;;;;;4.93;2.83;;;;;;;12.98;68.40;97015.63;127823;1093;26112;-92
2021/06/15 04:29:39;;;;;;;3.90;2.70;;;;;;;13.05;68.37;97007.30;127783;1092;113800;-92
2021/06/15 04:32:14;;;;;;;4.90;2.48;;;;;;;13.16;68.22;97007.98;127928;1093;28412;-92
2021/06/15 04:34:52;;;;;;;4.35;2.40;;;;;;;13.27;68.35;97012.92;127850;1093;24546;-92
2021/06/15 04:37:25;;;;;;;5.43;2.37;;;;;;;13.39;68.13;97012.52;127767;1093;113363;-92
2021/06/15 04:40:06;;;;;;;4.67;2.60;;;;;;;13.47;68.01;97021.73;127865;1093;34393;-91
2021/06/15 04:42:47;;;;;;;5.38;2.73;;;;;;;13.56;67.93;97028.80;127735;1093;114124;-92
2021/06/15 04:45:25;;;;;;;4.18;2.50;;;;;;;13.65;67.75;97023.61;127863;1093;24901;-92
2021/06/15 04:48:03;;;;;;;5.08;2.40;;;;;;;13.75;67.83;97025.35;127750;1093;113865;-92
2021/06/15 04:50:36;;;;;;;4.23;2.40;;;;;;;13.86;67.86;97024.13;127867;1093;38791;-93
2021/06/15 04:53:09;;;;;;;3.55;2.10;;;;;;;13.96;67.75;97026.66;127759;1093;113768;-92
2021/06/15 04:55:42;;;;;;;3.13;2.27;;;;;;;14.05;67.40;97027.57;127914;1092;26250;-93
2021/06/15 04:58:16;;;;;;;3.70;2.48;;;;;;;14.12;67.31;97025.34;127937;1093;23941;-92
2021/06/15 05:00:48;;;;;;;3.93;2.07;;;;;;;14.19;67.04;97031.08;127803;1093;113634;-92
2021/06/15 05:03:21;;;;;;;5.63;2.63;;;;;;;14.20;66.54;97027.33;127806;1092;34505;-93
2021/06/15 05:05:56;;;;;;;4.95;2.75;;;;;;;14.26;66.34;97022.73;127749;1093;114048;-92
2021/06/15 05:08:30;;;;;;;5.08;2.58;;;;;;;14.37;65.94;97020.70;127859;1093;26509;-91
2021/06/15 05:11:03;;;;;;;5.40;2.28;;;;;;;14.52;65.95;97033.80;127798;1093;31264;-92
2021/06/15 05:13:37;;;;;;;4.35;2.35;;;;;;;14.70;65.98;97024.16;127785;1092;113522;-92
2021/06/15 05:16:09;;;;;;;4.65;2.48;;;;;;;14.90;65.07;97031.78;127873;1093;26348;-91
2021/06/15 05:18:41;;;;;;;3.98;2.73;;;;;;;15.08;65.20;97030.92;127774;1093;114645;-91
2021/06/15 05:21:19;;;;;;;4.33;2.70;;;;;;;15.38;65.01;97026.06;127930;1093;26540;-91
2021/06/15 05:23:57;;;;;;;4.97;2.50;;;;;;;16.09;65.22;97034.45;127782;1092;113740;-92
2021/06/15 05:26:30;;;;;;;4.45;2.80;;;;;;;17.18;64.37;97031.17;127866;1093;34731;-92
2021/06/15 05:29:02;;;;;;;5.90;2.25;;;;;;;18.29;62.88;97037.01;127863;1093;27249;-92
2021/06/15 05:31:33;;;;;;;4.43;2.35;;;;;;;18.99;60.61;97032.30;127761;1092;114289;-92
2021/06/15 05:34:04;;;;;;;5.03;2.65;;;;;;;19.70;59.28;97037.05;127821;1093;27546;-94
2021/06/15 05:36:36;;;;;;;4.65;2.60;;;;;;;20.35;58.44;97030.22;127754;1093;114069;-92
2021/06/15 05:39:08;;;;;;;4.90;2.65;;;;;;;20.80;56.96;97024.88;127844;1093;25957;-94
2021/06/15 05:41:40;;;;;;;5.80;2.40;;;;;;;20.93;55.89;97031.08;127802;1093;114094;-93
2021/06/15 05:44:12;;;;;;;3.78;2.45;;;;;;;21.19;55.35;97025.38;127894;1093;26053;-92
2021/06/15 05:46:43;;;;;;;3.70;2.23;;;;;;;21.30;54.56;97030.03;127900;1092;24454;-95
2021/06/15 05:49:14;;;;;;;3.50;2.25;;;;;;;21.49;53.96;97031.36;127854;1093;113762;-91
2021/06/15 05:51:46;;;;;;;3.80;2.50;;;;;;;22.01;53.52;97036.02;127868;1093;28629;-90
2021/06/15 05:54:18;;;;;;;5.85;2.28;;;;;;;22.69;52.22;97033.30;127762;1092;113812;-91
2021/06/15 05:56:50;;;;;;;4.13;2.15;;;;;;;23.35;51.65;97038.05;127884;1093;25468;-92
2021/06/15 05:59:21;;;;;;;3.35;1.80;;;;;;;23.94;50.43;97031.70;127769;1092;114195;-93
2021/06/15 06:01:53;;;;;;;4.50;1.80;;;;;;;24.60;49.27;97040.77;127867;1093;25508;-92
2021/06/15 06:04:27;;;;;;;3.18;2.05;;;;;;;25.20;48.57;97039.17;127838;1092;25713;-93
2021/06/15 06:09:48;;;;;;;3.27;2.17;;;;;;;25.75;45.17;97043.13;127848;1093;29560;-92
2021/06/15 06:12:19;;;;;;;3.25;2.05;;;;;;;25.88;45.87;97043.70;127760;1093;113695;-93
2021/06/15 06:14:50;;;;;;;5.68;2.05;;;;;;;26.16;44.12;97046.01;127878;1093;39826;-92
2021/06/15 06:17:22;;;;;;;5.50;2.15;;;;;;;26.12;43.52;97047.91;127801;1093;114007;-91
2021/06/15 06:19:53;;;;;;;4.65;2.20;;;;;;;26.38;42.42;97049.03;127863;1093;26936;-91
2021/06/15 06:22:24;;;;;;;3.48;2.08;;;;;;;26.95;42.65;97057.81;127868;1093;23339;-92
2021/06/15 06:24:56;;;;;;;4.45;2.00;;;;;;;26.43;40.97;97054.91;127769;1092;113784;-91
2021/06/15 06:27:27;;;;;;;4.75;2.40;;;;;;;26.12;40.98;97063.43;127860;1093;26222;-91
2021/06/15 06:29:59;;;;;;;4.25;2.20;;;;;;;26.79;41.02;97063.48;127777;1093;114325;-90
2021/06/15 06:32:30;;;;;;;6.98;2.10;;;;;;;26.74;40.74;97063.80;127870;1092;22884;-92
2021/06/15 06:35:04;;;;;;;3.10;1.90;;;;;;;26.99;40.79;97062.13;127898;1093;26412;-92
2021/06/15 06:37:36;;;;;;;3.83;2.10;;;;;;;27.53;40.10;97057.95;127619;1093;114037;-94
2021/06/15 06:40:09;;;;;;;5.78;2.03;;;;;;;27.04;39.41;97061.05;127812;1092;25850;-93
2021/06/15 06:42:40;;;;;;;3.90;2.18;;;;;;;27.14;39.35;97066.56;127811;1093;113973;-93
2021/06/15 06:45:13;;;;;;;2.63;1.80;;;;;;;26.78;39.31;97072.80;127895;1093;29474;-93
2021/06/15 06:47:45;;;;;;;3.90;2.23;;;;;;;27.26;39.90;97079.13;127817;1093;114385;-93
2021/06/15 06:50:16;;;;;;;5.13;2.20;;;;;;;27.44;39.21;97071.09;127947;1093;24629;-90
2021/06/15 06:52:48;;;;;;;3.88;2.28;;;;;;;27.28;38.38;97070.58;127835;1093;25354;-92
2021/06/15 06:55:20;;;;;;;4.40;1.85;;;;;;;26.77;38.46;97069.30;127783;1093;113638;-91
2021/06/15 06:57:52;;;;;;;5.05;2.10;;;;;;;27.17;38.76;97065.84;127901;1093;22805;-91
2021/06/15 07:00:24;;;;;;;4.10;2.50;;;;;;;27.80;38.85;97062.06;127617;1093;113805;-91
2021/06/15 07:02:56;;;;;;;2.68;1.88;;;;;;;28.37;38.03;97069.78;127866;1093;25060;-94
2021/06/15 07:05:27;;;;;;;6.10;2.20;;;;;;;28.20;37.69;97068.52;127725;1093;114152;-94
2021/06/15 07:07:59;;;;;;;4.80;1.80;;;;;;;28.39;37.88;97070.96;127887;1093;26889;-92
2021/06/15 07:10:30;;;;;;;5.03;2.40;;;;;;;28.78;36.35;97064.86;127843;1093;25898;-92
2021/06/15 07:13:03;;;;;;;5.28;2.35;;;;;;;27.85;36.85;97069.09;127781;1093;113697;-92
2021/06/15 07:15:34;;;;;;;2.83;1.68;;;;;;;28.06;37.98;97073.89;127881;1093;27605;-93
2021/06/15 07:18:06;;;;;;;2.48;1.60;;;;;;;28.94;37.40;97072.72;127805;1093;113522;-92
2021/06/15 07:20:37;;;;;;;4.23;1.65;;;;;;;29.33;36.56;97070.04;127883;1092;23006;-92
2021/06/15 07:23:09;;;;;;;2.10;1.78;;;;;;;28.79;34.75;97071.09;127850;1092;23911;-92
2021/06/15 07:25:40;;;;;;;2.23;1.55;;;;;;;27.98;34.90;97077.73;127673;1093;113365;-93
2021/06/15 07:28:12;;;;;;;2.33;1.43;;;;;;;28.49;35.18;97076.85;127931;1093;23477;-92
2021/06/15 07:30:43;;;;;;;4.53;1.10;;;;;;;28.01;34.75;97077.77;127832;1092;114135;-92
2021/06/15 07:33:15;;;;;;;2.77;1.00;;;;;;;28.00;33.54;97075.40;127951;1092;22853;-91
2021/06/15 07:35:46;;;;;;;3.20;1.15;;;;;;;27.80;34.65;97078.41;127778;1093;113720;-89
2021/06/15 07:38:18;;;;;;;2.25;1.60;;;;;;;28.13;34.75;97073.92;127942;1093;24051;-92
2021/06/15 07:40:50;;;;;;;3.73;2.23;;;;;;;28.77;34.58;97078.89;127909;1093;24421;-92
2021/06/15 07:43:21;;;;;;;4.70;1.65;;;;;;;28.65;33.65;97075.34;127758;1092;113551;-93
2021/06/15 07:45:52;;;;;;;5.03;2.00;;;;;;;28.62;33.19;97078.85;127904;1093;24322;-91
2021/06/15 07:48:24;;;;;;;2.35;1.60;;;;;;;27.65;32.68;97074.02;127765;1093;113794;-93
2021/06/15 07:50:55;;;;;;;2.45;1.50;;;;;;;27.61;34.74;97070.47;127831;1093;25974;-92
2021/06/15 07:53:27;;;;;;;3.08;1.33;;;;;;;28.48;34.52;97078.02;127756;1093;113774;-91
2021/06/15 07:55:58;;;;;;;3.28;1.73;;;;;;;29.39;34.12;97064.95;127885;1092;24305;-91
2021/06/15 07:58:30;;;;;;;3.10;1.95;;;;;;;30.04;34.35;97064.52;127936;1093;25098;-91
2021/06/15 08:01:02;;;;;;;3.80;1.70;;;;;;;30.65;33.76;97067.86;127776;1093;114289;-92
2021/06/15 08:03:33;;;;;;;2.98;1.83;;;;;;;31.14;33.21;97065.23;127864;1093;29103;-91
2021/06/15 08:06:05;;;;;;;2.83;1.53;;;;;;;31.40;31.50;97061.16;127750;1093;114360;-92
2021/06/15 08:08:38;;;;;;;4.93;2.03;;;;;;;29.98;29.17;97068.04;127710;1093;28008;-95
2021/06/15 08:11:09;;;;;;;2.38;1.40;;;;;;;28.45;30.97;97070.61;127862;1093;23122;-92
2021/06/15 08:13:41;;;;;;;2.20;1.30;;;;;;;28.45;32.34;97062.42;127777;1093;113889;-93
2021/06/15 08:16:12;;;;;;;3.63;1.53;;;;;;;28.58;32.40;97060.92;127945;1092;23711;-91
2021/06/15 08:18:44;;;;;;;2.30;1.43;;;;;;;29.22;32.79;97052.86;127900;1092;114245;-92
2021/06/15 08:21:16;;;;;;;4.95;1.60;;;;;;;29.81;31.24;97053.23;127932;1093;25142;-92
2021/06/15 08:23:47;;;;;;;3.75;1.65;;;;;;;29.42;31.49;97045.05;127741;1093;114029;-92
2021/06/15 08:26:19;;;;;;;2.60;1.53;;;;;;;30.01;32.09;97057.11;127764;1093;28180;-91
2021/06/15 08:28:50;;;;;;;3.45;1.13;;;;;;;30.63;31.51;97044.80;127926;1093;22829;-92
2021/06/15 08:31:21;;;;;;;2.63;1.40;;;;;;;31.05;30.37;97046.50;127687;1093;114387;-92
2021/06/15 08:33:53;;;;;;;4.05;1.73;;;;;;;31.11;30.79;97049.58;127867;1091;24311;-91
2021/06/15 08:36:25;;;;;;;2.50;1.53;;;;;;;31.45;30.44;97047.02;127755;1092;113741;-92
2021/06/15 08:39:02;;;;;;;3.00;1.48;;;;;;;31.68;30.04;97046.42;127838;1093;24944;-91
2021/06/15 08:41:34;;;;;;;3.93;1.73;;;;;;;32.04;30.34;97044.11;127770;1093;114063;-91
2021/06/15 08:44:07;;;;;;;2.78;1.85;;;;;;;32.35;29.55;97042.20;127862;1093;22864;-90
2021/06/15 08:46:39;;;;;;;4.30;1.88;;;;;;;31.02;28.66;97048.09;127883;1092;23276;-94
2021/06/15 08:49:11;;;;;;;1.90;1.70;;;;;;;30.18;30.31;97049.28;127751;1093;113887;-91
2021/06/15 08:51:44;;;;;;;3.70;1.88;;;;;;;30.18;31.00;97049.28;127923;1093;26668;-94
2021/06/15 08:54:19;;;;;;;3.10;1.80;;;;;;;29.89;30.61;97049.33;127819;1093;114113;-92
2021/06/15 08:56:51;;;;;;;3.28;2.10;;;;;;;29.76;31.42;97048.19;127891;1093;25326;-92
2021/06/15 08:59:25;;;;;;;3.08;2.00;;;;;;;29.32;31.06;97046.63;127860;1093;114734;-92
2021/06/15 09:01:58;;;;;;;5.18;1.90;;;;;;;28.82;31.85;97048.48;127808;1093;27533;-94
2021/06/15 09:04:30;;;;;;;7.37;2.13;;;;;;;28.29;31.74;97047.17;127849;1092;22829;-94
2021/06/15 09:07:02;;;;;;;5.97;2.40;;;;;;;28.15;33.23;97049.78;127774;1093;113858;-91
2021/06/15 09:09:45;;;;;;;3.30;1.85;;;;;;;28.20;33.11;97046.70;127855;1093;25382;-90
2021/06/15 09:12:19;;;;;;;3.70;2.10;;;;;;;27.65;33.24;97054.17;127749;1093;113769;-90
2021/06/15 09:14:53;;;;;;;3.05;1.78;;;;;;;27.45;33.44;97054.41;127878;1093;26233;-91
2021/06/15 09:17:37;;;;;;;3.40;1.90;;;;;;;27.46;33.30;97052.46;127762;1093;114266;-92
2021/06/15 09:20:20;;;;;;;2.90;1.68;;;;;;;27.33;33.79;97048.47;127847;1093;22973;-92
2021/06/15 09:23:02;;;;;;;4.15;1.83;;;;;;;27.00;33.79;97055.52;127862;1093;26314;-92
2021/06/15 09:25:34;;;;;;;4.55;1.90;;;;;;;25.85;33.21;97054.52;127797;1092;114406;-90
2021/06/15 09:28:21;;;;;;;4.18;1.88;;;;;;;25.22;34.55;97050.45;127915;1093;25401;-91
2021/06/15 09:31:03;;;;;;;4.35;1.60;;;;;;;25.11;33.90;97044.05;127796;1091;114197;-90
2021/06/15 09:33:41;;;;;;;5.75;1.90;;;;;;;24.13;34.30;97042.55;127875;1092;24203;-91
2021/06/15 09:36:29;;;;;;;2.43;1.38;;;;;;;23.59;34.85;97037.89;127848;1093;113844;-91
2021/06/15 09:39:02;;;;;;;3.45;1.60;;;;;;;23.29;35.83;97039.47;127895;1093;23983;-91
2021/06/15 09:41:39;;;;;;;3.00;1.58;;;;;;;23.18;36.40;97033.80;127803;1092;113978;-92
2021/06/15 09:44:18;;;;;;;2.73;1.70;;;;;;;23.13;37.06;97031.36;127900;1093;25566;-91
2021/06/15 09:46:52;;;;;;;2.45;1.43;;;;;;;23.46;38.07;97033.69;127872;1093;24238;-92
2021/06/15 09:49:32;;;;;;;2.05;1.58;;;;;;;23.85;37.38;97031.11;127772;1092;114425;-93
2021/06/15 09:52:20;;;;;;;2.90;1.78;;;;;;;24.13;37.42;97028.22;127870;1093;27934;-92
2021/06/15 09:54:54;;;;;;;1.80;1.13;;;;;;;24.30;37.27;97022.39;127751;1093;113662;-93
2021/06/15 09:57:29;;;;;;;2.55;1.53;;;;;;;24.49;37.41;97024.30;127918;1093;22803;-93
2021/06/15 10:00:10;;;;;;;4.03;1.70;;;;;;;24.64;37.26;97023.45;127788;1093;113850;-92
2021/06/15 10:02:51;;;;;;;2.28;1.68;;;;;;;24.76;36.98;97017.05;127871;1092;23897;-93
2021/06/15 10:05:26;;;;;;;3.35;1.90;;;;;;;24.18;35.89;97017.09;127783;1093;113836;-93
2021/06/15 10:08:00;;;;;;;3.85;1.80;;;;;;;23.68;35.93;97024.95;127900;1093;24851;-90
2021/06/15 10:10:34;;;;;;;4.60;1.90;;;;;;;23.31;37.41;97023.66;127867;1092;25028;-90
2021/06/15 10:13:07;;;;;;;3.25;1.70;;;;;;;23.43;37.24;97023.57;127734;1092;113679;-91
2021/06/15 10:15:41;;;;;;;3.23;1.80;;;;;;;23.45;37.18;97015.88;127880;1093;25906;-90
2021/06/15 10:18:13;;;;;;;3.33;1.55;;;;;;;23.55;37.92;97015.34;127864;1093;113679;-91
2021/06/15 10:20:44;;;;;;;2.68;1.50;;;;;;;23.57;37.68;97012.28;127937;1093;23082;-91
2021/06/15 10:23:18;;;;;;;3.15;1.60;;;;;;;23.70;37.93;97005.65;127959;1093;25016;-91
2021/06/15 10:25:50;;;;;;;3.13;1.58;;;;;;;23.92;37.40;97007.66;127752;1092;114319;-93
2021/06/15 10:28:22;;;;;;;2.63;1.93;;;;;;;23.89;36.68;97004.88;127873;1093;24487;-93
2021/06/15 10:31:01;;;;;;;3.50;1.50;;;;;;;23.92;36.94;97001.45;127775;1092;114130;-93
2021/06/15 10:33:45;;;;;;;2.35;1.45;;;;;;;23.95;36.14;96992.64;127849;1093;28447;-92
2021/06/15 10:36:16;;;;;;;4.08;1.70;;;;;;;24.01;38.53;96988.50;127811;1093;113695;-92
2021/06/15 10:38:49;;;;;;;3.70;1.68;;;;;;;24.20;38.06;96983.07;127871;1093;25029;-90
2021/06/15 10:41:26;;;;;;;2.60;1.63;;;;;;;24.36;38.24;96982.27;127845;1092;26200;-94
2021/06/15 10:44:00;;;;;;;2.40;1.50;;;;;;;24.43;37.73;96979.67;127753;1093;114366;-94
2021/06/15 10:46:40;;;;;;;3.98;1.73;;;;;;;24.54;38.62;96981.44;127862;1093;29157;-94
2021/06/15 10:49:14;;;;;;;2.35;1.60;;;;;;;24.67;38.49;96979.34;127794;1092;114246;-93
2021/06/15 10:51:54;;;;;;;4.33;1.58;;;;;;;24.72;37.98;96976.33;127891;1093;26265;-93
2021/06/15 10:54:42;;;;;;;3.40;1.73;;;;;;;24.69;38.45;96970.84;127764;1092;113676;-92
2021/06/15 10:57:25;;;;;;;3.35;1.50;;;;;;;24.74;39.04;96974.03;127920;1093;24202;-95
2021/06/15 11:00:09;;;;;;;3.05;1.88;;;;;;;24.78;38.61;96971.40;127651;1093;114700;-92
2021/06/15 11:03:01;;;;;;;3.37;1.80;;;;;;;24.58;38.14;96967.94;127843;1093;42420;-92
2021/06/15 11:05:44;;;;;;;2.73;1.50;;;;;;;24.59;38.83;96974.92;125592;1091;2573170;-96
2021/06/15 11:08:22;;;;;;;3.35;1.55;;;;;;;24.70;38.90;96962.34;127808;1093;114556;-93
2021/06/15 11:10:57;;;;;;;2.95;1.65;;;;;;;24.79;37.94;96964.83;127891;1093;27451;-93
2021/06/15 11:13:47;;;;;;;3.50;1.70;;;;;;;24.48;37.21;96958.46;127766;1092;114092;-93
2021/06/15 11:16:28;;;;;;;3.07;1.37;;;;;;;24.25;37.97;96958.42;127894;1093;24906;-92
2021/06/15 11:19:35;;;;;;;3.25;1.70;;;;;;;24.39;38.82;96949.02;127756;1093;114378;-91
2021/06/15 11:22:18;;;;;;;5.15;1.80;;;;;;;24.52;38.33;96947.70;127863;1093;25157;-92
2021/06/15 11:24:55;;;;;;;3.38;1.50;;;;;;;24.54;38.06;96946.20;127714;1093;113683;-92
2021/06/15 11:27:39;;;;;;;3.05;1.55;;;;;;;24.46;36.89;96947.20;127884;1093;23580;-93
2021/06/15 11:30:27;;;;;;;2.70;1.40;;;;;;;24.09;37.33;96941.47;127784;1093;114612;-91
2021/06/15 11:33:05;;;;;;;2.73;1.30;;;;;;;24.11;39.01;96944.59;127888;1093;23809;-91
2021/06/15 11:35:42;;;;;;;4.15;1.58;;;;;;;24.25;39.19;96942.16;127869;1093;22816;-90
2021/06/15 11:38:18;;;;;;;3.13;1.37;;;;;;;24.41;39.56;96935.89;127824;1093;114002;-93
2021/06/15 11:40:50;;;;;;;1.93;1.58;;;;;;;24.41;39.14;96946.73;127878;1093;23736;-92
2021/06/15 11:43:23;;;;;;;3.63;1.60;;;;;;;24.44;39.63;96938.66;127740;1092;114131;-94
2021/06/15 11:45:58;;;;;;;2.90;1.60;;;;;;;24.53;39.09;96941.14;127764;1092;22810;-95
2021/06/15 11:48:32;;;;;;;3.57;1.80;;;;;;;24.22;37.77;96939.39;127707;1093;114133;-92
2021/06/15 11:51:06;;;;;;;3.18;1.70;;;;;;;24.03;39.02;96934.76;127862;1093;23852;-93
2021/06/15 11:53:40;;;;;;;2.68;1.60;;;;;;;24.18;39.88;96936.59;127850;1092;22793;-94
2021/06/15 11:56:15;;;;;;;3.80;1.55;;;;;;;24.16;38.65;96938.88;127831;1092;113467;-90
2021/06/15 11:58:54;;;;;;;2.93;1.38;;;;;;;24.09;38.83;96933.34;127874;1093;26684;-92